sensor_id;sensor_type;location;lat;lon;timestamp;P1;durP1;ratioP1;P2;durP2;ratioP2
5279;SDS011;2663;53.588;10.010;2022-08-19T00:01:45;19.43;;;11.10;;
5279;SDS011;2663;53.588;10.010;2022-08-19T00:04:20;23.43;;;11.50;;
5279;SDS011;2663;53.588;10.010;2022-08-19T00:06:48;21.87;;;13.37;;
5279;SDS011;2663;53.588;10.010;2022-08-19T00:09:16;25.83;;;15.03;;
5279;SDS011;2663;53.588;10.010;2022-08-19T00:11:45;26.57;;;15.13;;
5279;SDS011;2663;53.588;10.010;2022-08-19T00:14:13;24.50;;;15.40;;
5279;SDS011;2663;53.588;10.010;2022-08-19T00:16:42;33.70;;;18.73;;
5279;SDS011;2663;53.588;10.010;2022-08-19T00:19:10;31.03;;;17.23;;
5279;SDS011;2663;53.588;10.010;2022-08-19T00:21:37;32.60;;;17.20;;
5279;SDS011;2663;53.588;10.010;2022-08-19T00:24:07;31.00;;;17.67;;
5279;SDS011;2663;53.588;10.010;2022-08-19T00:26:35;31.40;;;19.33;;
5279;SDS011;2663;53.588;10.010;2022-08-19T00:29:04;32.47;;;18.57;;
5279;SDS011;2663;53.588;10.010;2022-08-19T00:31:31;30.10;;;19.10;;
5279;SDS011;2663;53.588;10.010;2022-08-19T00:33:58;37.93;;;19.10;;
5279;SDS011;2663;53.588;10.010;2022-08-19T00:36:25;36.67;;;18.27;;
5279;SDS011;2663;53.588;10.010;2022-08-19T00:38:52;28.93;;;18.80;;
5279;SDS011;2663;53.588;10.010;2022-08-19T00:41:20;39.47;;;20.50;;
5279;SDS011;2663;53.588;10.010;2022-08-19T00:43:56;36.77;;;21.83;;
5279;SDS011;2663;53.588;10.010;2022-08-19T00:46:27;37.93;;;20.60;;
5279;SDS011;2663;53.588;10.010;2022-08-19T00:48:55;30.87;;;19.00;;
5279;SDS011;2663;53.588;10.010;2022-08-19T00:51:24;33.10;;;18.80;;
5279;SDS011;2663;53.588;10.010;2022-08-19T00:53:54;37.93;;;20.50;;
5279;SDS011;2663;53.588;10.010;2022-08-19T00:56:23;36.27;;;18.23;;
5279;SDS011;2663;53.588;10.010;2022-08-19T00:58:52;32.43;;;19.30;;
5279;SDS011;2663;53.588;10.010;2022-08-19T01:01:22;43.93;;;22.37;;
5279;SDS011;2663;53.588;10.010;2022-08-19T01:03:50;33.70;;;20.37;;
5279;SDS011;2663;53.588;10.010;2022-08-19T01:06:23;37.03;;;18.63;;
5279;SDS011;2663;53.588;10.010;2022-08-19T01:08:50;44.70;;;20.60;;
5279;SDS011;2663;53.588;10.010;2022-08-19T01:11:17;33.53;;;20.27;;
5279;SDS011;2663;53.588;10.010;2022-08-19T01:13:44;32.27;;;19.73;;
5279;SDS011;2663;53.588;10.010;2022-08-19T01:16:15;41.70;;;19.93;;
5279;SDS011;2663;53.588;10.010;2022-08-19T01:18:43;44.13;;;19.87;;
5279;SDS011;2663;53.588;10.010;2022-08-19T01:21:12;35.13;;;18.77;;
5279;SDS011;2663;53.588;10.010;2022-08-19T01:23:48;33.27;;;18.00;;
5279;SDS011;2663;53.588;10.010;2022-08-19T01:26:16;39.60;;;19.43;;
5279;SDS011;2663;53.588;10.010;2022-08-19T01:28:47;33.83;;;16.93;;
5279;SDS011;2663;53.588;10.010;2022-08-19T01:31:18;37.30;;;19.13;;
5279;SDS011;2663;53.588;10.010;2022-08-19T01:33:54;32.93;;;17.17;;
5279;SDS011;2663;53.588;10.010;2022-08-19T01:36:24;29.63;;;17.77;;
5279;SDS011;2663;53.588;10.010;2022-08-19T01:38:54;31.87;;;18.97;;
5279;SDS011;2663;53.588;10.010;2022-08-19T01:41:22;33.83;;;18.37;;
5279;SDS011;2663;53.588;10.010;2022-08-19T01:43:50;35.10;;;19.07;;
5279;SDS011;2663;53.588;10.010;2022-08-19T01:46:40;38.80;;;20.53;;
5279;SDS011;2663;53.588;10.010;2022-08-19T01:49:07;40.03;;;22.00;;
5279;SDS011;2663;53.588;10.010;2022-08-19T01:51:36;35.13;;;20.83;;
5279;SDS011;2663;53.588;10.010;2022-08-19T01:54:05;35.77;;;18.40;;
5279;SDS011;2663;53.588;10.010;2022-08-19T01:56:33;36.60;;;20.37;;
5279;SDS011;2663;53.588;10.010;2022-08-19T01:59:02;36.17;;;18.90;;
5279;SDS011;2663;53.588;10.010;2022-08-19T02:01:34;31.70;;;18.37;;
5279;SDS011;2663;53.588;10.010;2022-08-19T02:04:01;38.03;;;19.50;;
5279;SDS011;2663;53.588;10.010;2022-08-19T02:06:28;32.23;;;19.83;;
5279;SDS011;2663;53.588;10.010;2022-08-19T02:08:56;44.27;;;22.30;;
5279;SDS011;2663;53.588;10.010;2022-08-19T02:11:24;44.30;;;21.53;;
5279;SDS011;2663;53.588;10.010;2022-08-19T02:13:58;45.13;;;20.83;;
5279;SDS011;2663;53.588;10.010;2022-08-19T02:16:27;40.10;;;19.97;;
5279;SDS011;2663;53.588;10.010;2022-08-19T02:18:54;40.00;;;20.57;;
5279;SDS011;2663;53.588;10.010;2022-08-19T02:21:22;39.50;;;20.00;;
5279;SDS011;2663;53.588;10.010;2022-08-19T02:23:49;46.33;;;20.87;;
5279;SDS011;2663;53.588;10.010;2022-08-19T02:26:17;44.33;;;20.13;;
5279;SDS011;2663;53.588;10.010;2022-08-19T02:28:44;50.87;;;21.10;;
5279;SDS011;2663;53.588;10.010;2022-08-19T02:31:13;40.57;;;20.43;;
5279;SDS011;2663;53.588;10.010;2022-08-19T02:33:43;42.60;;;21.80;;
5279;SDS011;2663;53.588;10.010;2022-08-19T02:36:11;41.60;;;21.63;;
5279;SDS011;2663;53.588;10.010;2022-08-19T02:38:40;43.03;;;20.20;;
5279;SDS011;2663;53.588;10.010;2022-08-19T02:41:21;49.17;;;20.73;;
5279;SDS011;2663;53.588;10.010;2022-08-19T02:43:52;41.10;;;20.30;;
5279;SDS011;2663;53.588;10.010;2022-08-19T02:46:39;61.17;;;23.00;;
5279;SDS011;2663;53.588;10.010;2022-08-19T02:49:07;55.17;;;24.20;;
5279;SDS011;2663;53.588;10.010;2022-08-19T02:51:35;52.73;;;22.60;;
5279;SDS011;2663;53.588;10.010;2022-08-19T02:54:05;50.57;;;23.00;;
5279;SDS011;2663;53.588;10.010;2022-08-19T02:56:34;52.70;;;23.00;;
5279;SDS011;2663;53.588;10.010;2022-08-19T02:59:05;48.43;;;23.07;;
5279;SDS011;2663;53.588;10.010;2022-08-19T03:01:37;59.23;;;24.47;;
5279;SDS011;2663;53.588;10.010;2022-08-19T03:04:06;54.27;;;23.03;;
5279;SDS011;2663;53.588;10.010;2022-08-19T03:06:39;60.77;;;23.10;;
5279;SDS011;2663;53.588;10.010;2022-08-19T03:09:07;58.43;;;23.77;;
5279;SDS011;2663;53.588;10.010;2022-08-19T03:11:34;63.17;;;24.10;;
5279;SDS011;2663;53.588;10.010;2022-08-19T03:14:01;71.63;;;25.33;;
5279;SDS011;2663;53.588;10.010;2022-08-19T03:16:30;66.73;;;24.70;;
5279;SDS011;2663;53.588;10.010;2022-08-19T03:18:59;66.00;;;24.03;;
5279;SDS011;2663;53.588;10.010;2022-08-19T03:21:28;52.83;;;23.13;;
5279;SDS011;2663;53.588;10.010;2022-08-19T03:23:57;52.13;;;23.20;;
5279;SDS011;2663;53.588;10.010;2022-08-19T03:26:26;50.10;;;23.47;;
5279;SDS011;2663;53.588;10.010;2022-08-19T03:28:53;57.67;;;24.47;;
5279;SDS011;2663;53.588;10.010;2022-08-19T03:31:24;58.07;;;24.70;;
5279;SDS011;2663;53.588;10.010;2022-08-19T03:34:11;58.13;;;24.57;;
5279;SDS011;2663;53.588;10.010;2022-08-19T03:36:40;71.60;;;24.20;;
5279;SDS011;2663;53.588;10.010;2022-08-19T03:39:07;57.27;;;21.53;;
5279;SDS011;2663;53.588;10.010;2022-08-19T03:41:37;49.37;;;20.60;;
5279;SDS011;2663;53.588;10.010;2022-08-19T03:44:12;56.60;;;23.77;;
5279;SDS011;2663;53.588;10.010;2022-08-19T03:46:43;51.93;;;21.40;;
5279;SDS011;2663;53.588;10.010;2022-08-19T03:49:10;51.27;;;21.70;;
5279;SDS011;2663;53.588;10.010;2022-08-19T03:51:40;57.27;;;22.60;;
5279;SDS011;2663;53.588;10.010;2022-08-19T03:54:10;49.30;;;21.27;;
5279;SDS011;2663;53.588;10.010;2022-08-19T03:56:39;44.00;;;19.20;;
5279;SDS011;2663;53.588;10.010;2022-08-19T03:59:10;45.80;;;19.97;;
5279;SDS011;2663;53.588;10.010;2022-08-19T04:01:39;44.97;;;20.40;;
5279;SDS011;2663;53.588;10.010;2022-08-19T04:04:07;45.03;;;22.27;;
5279;SDS011;2663;53.588;10.010;2022-08-19T04:06:35;51.30;;;23.03;;
5279;SDS011;2663;53.588;10.010;2022-08-19T04:09:05;41.93;;;19.00;;
5279;SDS011;2663;53.588;10.010;2022-08-19T04:11:35;43.30;;;21.47;;
5279;SDS011;2663;53.588;10.010;2022-08-19T04:14:10;41.10;;;19.27;;
5279;SDS011;2663;53.588;10.010;2022-08-19T04:16:42;50.73;;;21.13;;
5279;SDS011;2663;53.588;10.010;2022-08-19T04:19:11;46.87;;;22.50;;
5279;SDS011;2663;53.588;10.010;2022-08-19T04:21:38;54.00;;;21.40;;
5279;SDS011;2663;53.588;10.010;2022-08-19T04:24:06;54.13;;;22.00;;
5279;SDS011;2663;53.588;10.010;2022-08-19T04:26:34;56.73;;;20.37;;
5279;SDS011;2663;53.588;10.010;2022-08-19T04:29:09;47.33;;;21.50;;
5279;SDS011;2663;53.588;10.010;2022-08-19T04:31:38;47.23;;;19.77;;
5279;SDS011;2663;53.588;10.010;2022-08-19T04:34:06;51.10;;;22.47;;
5279;SDS011;2663;53.588;10.010;2022-08-19T04:36:37;60.47;;;24.47;;
5279;SDS011;2663;53.588;10.010;2022-08-19T04:39:08;49.47;;;23.43;;
5279;SDS011;2663;53.588;10.010;2022-08-19T04:41:37;73.47;;;24.07;;
5279;SDS011;2663;53.588;10.010;2022-08-19T04:44:23;50.57;;;22.50;;
5279;SDS011;2663;53.588;10.010;2022-08-19T04:46:50;62.93;;;24.70;;
5279;SDS011;2663;53.588;10.010;2022-08-19T04:49:18;63.67;;;25.50;;
5279;SDS011;2663;53.588;10.010;2022-08-19T04:51:48;66.70;;;26.47;;
5279;SDS011;2663;53.588;10.010;2022-08-19T04:54:17;60.20;;;27.40;;
5279;SDS011;2663;53.588;10.010;2022-08-19T04:57:04;74.20;;;28.40;;
5279;SDS011;2663;53.588;10.010;2022-08-19T04:59:33;72.80;;;29.17;;
5279;SDS011;2663;53.588;10.010;2022-08-19T05:02:00;66.43;;;27.97;;
5279;SDS011;2663;53.588;10.010;2022-08-19T05:04:27;68.23;;;29.90;;
5279;SDS011;2663;53.588;10.010;2022-08-19T05:06:56;73.50;;;29.80;;
5279;SDS011;2663;53.588;10.010;2022-08-19T05:09:26;67.40;;;28.00;;
5279;SDS011;2663;53.588;10.010;2022-08-19T05:12:13;76.30;;;30.13;;
5279;SDS011;2663;53.588;10.010;2022-08-19T05:14:40;78.70;;;32.10;;
5279;SDS011;2663;53.588;10.010;2022-08-19T05:17:07;77.93;;;32.57;;
5279;SDS011;2663;53.588;10.010;2022-08-19T05:19:52;79.77;;;30.53;;
5279;SDS011;2663;53.588;10.010;2022-08-19T05:22:38;74.30;;;33.63;;
5279;SDS011;2663;53.588;10.010;2022-08-19T05:25:07;104.63;;;35.87;;
5279;SDS011;2663;53.588;10.010;2022-08-19T05:27:39;69.93;;;32.10;;
5279;SDS011;2663;53.588;10.010;2022-08-19T05:30:06;83.73;;;34.37;;
5279;SDS011;2663;53.588;10.010;2022-08-19T05:32:33;84.93;;;35.20;;
5279;SDS011;2663;53.588;10.010;2022-08-19T05:35:00;83.53;;;33.77;;
5279;SDS011;2663;53.588;10.010;2022-08-19T05:37:27;86.40;;;34.37;;
5279;SDS011;2663;53.588;10.010;2022-08-19T05:39:54;81.87;;;33.97;;
5279;SDS011;2663;53.588;10.010;2022-08-19T05:42:21;63.63;;;31.50;;
5279;SDS011;2663;53.588;10.010;2022-08-19T05:44:49;69.33;;;31.43;;
5279;SDS011;2663;53.588;10.010;2022-08-19T05:47:17;73.33;;;32.27;;
5279;SDS011;2663;53.588;10.010;2022-08-19T05:49:45;66.53;;;30.90;;
5279;SDS011;2663;53.588;10.010;2022-08-19T05:52:14;67.07;;;30.23;;
5279;SDS011;2663;53.588;10.010;2022-08-19T05:54:50;62.27;;;30.20;;
5279;SDS011;2663;53.588;10.010;2022-08-19T05:57:18;59.80;;;30.17;;
5279;SDS011;2663;53.588;10.010;2022-08-19T05:59:45;58.40;;;27.33;;
5279;SDS011;2663;53.588;10.010;2022-08-19T06:02:14;51.03;;;27.43;;
5279;SDS011;2663;53.588;10.010;2022-08-19T06:04:41;58.63;;;27.83;;
5279;SDS011;2663;53.588;10.010;2022-08-19T06:07:09;75.00;;;27.60;;
5279;SDS011;2663;53.588;10.010;2022-08-19T06:09:38;66.43;;;29.87;;
5279;SDS011;2663;53.588;10.010;2022-08-19T06:12:05;66.83;;;27.77;;
5279;SDS011;2663;53.588;10.010;2022-08-19T06:14:33;57.93;;;26.00;;
5279;SDS011;2663;53.588;10.010;2022-08-19T06:17:07;62.17;;;28.00;;
5279;SDS011;2663;53.588;10.010;2022-08-19T06:19:34;61.87;;;28.07;;
5279;SDS011;2663;53.588;10.010;2022-08-19T06:22:06;57.93;;;29.07;;
5279;SDS011;2663;53.588;10.010;2022-08-19T06:24:34;59.60;;;28.63;;
5279;SDS011;2663;53.588;10.010;2022-08-19T06:27:01;60.17;;;29.03;;
5279;SDS011;2663;53.588;10.010;2022-08-19T06:29:29;61.27;;;28.97;;
5279;SDS011;2663;53.588;10.010;2022-08-19T06:31:57;57.10;;;28.57;;
5279;SDS011;2663;53.588;10.010;2022-08-19T06:34:25;72.87;;;30.60;;
5279;SDS011;2663;53.588;10.010;2022-08-19T06:36:54;58.10;;;29.80;;
5279;SDS011;2663;53.588;10.010;2022-08-19T06:39:24;66.70;;;28.27;;
5279;SDS011;2663;53.588;10.010;2022-08-19T06:41:54;60.70;;;30.43;;
5279;SDS011;2663;53.588;10.010;2022-08-19T06:44:25;63.53;;;30.20;;
5279;SDS011;2663;53.588;10.010;2022-08-19T06:46:55;59.00;;;28.33;;
5279;SDS011;2663;53.588;10.010;2022-08-19T06:49:22;57.90;;;31.53;;
5279;SDS011;2663;53.588;10.010;2022-08-19T06:51:50;64.77;;;30.43;;
5279;SDS011;2663;53.588;10.010;2022-08-19T06:54:17;72.07;;;29.67;;
5279;SDS011;2663;53.588;10.010;2022-08-19T06:56:45;70.10;;;29.77;;
5279;SDS011;2663;53.588;10.010;2022-08-19T06:59:17;71.50;;;32.20;;
5279;SDS011;2663;53.588;10.010;2022-08-19T07:01:51;86.40;;;30.60;;
5279;SDS011;2663;53.588;10.010;2022-08-19T07:04:20;77.80;;;30.80;;
5279;SDS011;2663;53.588;10.010;2022-08-19T07:06:50;84.30;;;31.17;;
5279;SDS011;2663;53.588;10.010;2022-08-19T07:09:25;85.07;;;31.77;;
5279;SDS011;2663;53.588;10.010;2022-08-19T07:11:53;66.73;;;29.77;;
5279;SDS011;2663;53.588;10.010;2022-08-19T07:14:23;62.07;;;27.60;;
5279;SDS011;2663;53.588;10.010;2022-08-19T07:16:53;67.73;;;31.83;;
5279;SDS011;2663;53.588;10.010;2022-08-19T07:19:23;68.10;;;30.10;;
5279;SDS011;2663;53.588;10.010;2022-08-19T07:21:53;60.20;;;27.57;;
5279;SDS011;2663;53.588;10.010;2022-08-19T07:24:23;59.33;;;27.70;;
5279;SDS011;2663;53.588;10.010;2022-08-19T07:26:56;67.73;;;27.13;;
5279;SDS011;2663;53.588;10.010;2022-08-19T07:29:27;69.53;;;28.77;;
5279;SDS011;2663;53.588;10.010;2022-08-19T07:31:56;57.93;;;26.30;;
5279;SDS011;2663;53.588;10.010;2022-08-19T07:34:27;41.97;;;23.13;;
5279;SDS011;2663;53.588;10.010;2022-08-19T07:36:55;42.27;;;22.40;;
5279;SDS011;2663;53.588;10.010;2022-08-19T07:39:23;41.10;;;21.97;;
5279;SDS011;2663;53.588;10.010;2022-08-19T07:41:53;46.57;;;20.97;;
5279;SDS011;2663;53.588;10.010;2022-08-19T07:44:20;39.17;;;21.10;;
5279;SDS011;2663;53.588;10.010;2022-08-19T07:46:50;41.50;;;21.40;;
5279;SDS011;2663;53.588;10.010;2022-08-19T07:49:19;34.37;;;20.37;;
5279;SDS011;2663;53.588;10.010;2022-08-19T07:51:47;37.37;;;20.10;;
5279;SDS011;2663;53.588;10.010;2022-08-19T07:54:15;52.60;;;21.23;;
5279;SDS011;2663;53.588;10.010;2022-08-19T07:56:43;43.53;;;23.57;;
5279;SDS011;2663;53.588;10.010;2022-08-19T07:59:10;40.40;;;21.53;;
5279;SDS011;2663;53.588;10.010;2022-08-19T08:01:37;41.90;;;22.60;;
5279;SDS011;2663;53.588;10.010;2022-08-19T08:04:07;25.60;;;15.00;;
5279;SDS011;2663;53.588;10.010;2022-08-19T08:06:52;28.80;;;14.47;;
5279;SDS011;2663;53.588;10.010;2022-08-19T08:09:39;25.73;;;14.87;;
5279;SDS011;2663;53.588;10.010;2022-08-19T08:12:11;25.90;;;14.40;;
5279;SDS011;2663;53.588;10.010;2022-08-19T08:15:00;22.37;;;12.63;;
5279;SDS011;2663;53.588;10.010;2022-08-19T08:17:33;25.53;;;12.60;;
5279;SDS011;2663;53.588;10.010;2022-08-19T08:20:16;31.73;;;14.17;;
5279;SDS011;2663;53.588;10.010;2022-08-19T08:22:45;19.27;;;12.70;;
5279;SDS011;2663;53.588;10.010;2022-08-19T08:25:31;28.03;;;16.20;;
5279;SDS011;2663;53.588;10.010;2022-08-19T08:27:59;30.80;;;14.23;;
5279;SDS011;2663;53.588;10.010;2022-08-19T08:30:27;24.27;;;14.73;;
5279;SDS011;2663;53.588;10.010;2022-08-19T08:32:58;28.67;;;14.20;;
5279;SDS011;2663;53.588;10.010;2022-08-19T08:35:27;24.27;;;16.03;;
5279;SDS011;2663;53.588;10.010;2022-08-19T08:37:54;28.20;;;13.00;;
5279;SDS011;2663;53.588;10.010;2022-08-19T08:41:06;19.30;;;11.43;;
5279;SDS011;2663;53.588;10.010;2022-08-19T08:43:24;21.50;;;12.00;;
5279;SDS011;2663;53.588;10.010;2022-08-19T08:46:13;19.23;;;12.50;;
5279;SDS011;2663;53.588;10.010;2022-08-19T08:54:37;26.40;;;13.80;;
5279;SDS011;2663;53.588;10.010;2022-08-19T09:00:08;24.40;;;14.80;;
5279;SDS011;2663;53.588;10.010;2022-08-19T09:02:41;36.40;;;17.00;;
5279;SDS011;2663;53.588;10.010;2022-08-19T09:05:09;32.57;;;16.90;;
5279;SDS011;2663;53.588;10.010;2022-08-19T09:10:46;39.43;;;18.73;;
5279;SDS011;2663;53.588;10.010;2022-08-19T09:13:24;37.97;;;17.97;;
5279;SDS011;2663;53.588;10.010;2022-08-19T09:16:05;38.47;;;18.33;;
5279;SDS011;2663;53.588;10.010;2022-08-19T09:18:45;37.60;;;18.50;;
5279;SDS011;2663;53.588;10.010;2022-08-19T09:21:15;34.97;;;18.17;;
5279;SDS011;2663;53.588;10.010;2022-08-19T09:23:42;45.50;;;19.17;;
5279;SDS011;2663;53.588;10.010;2022-08-19T09:26:10;35.63;;;17.97;;
5279;SDS011;2663;53.588;10.010;2022-08-19T09:28:49;41.50;;;19.53;;
5279;SDS011;2663;53.588;10.010;2022-08-19T09:31:20;37.43;;;19.70;;
5279;SDS011;2663;53.588;10.010;2022-08-19T09:33:50;35.07;;;16.67;;
5279;SDS011;2663;53.588;10.010;2022-08-19T09:36:19;43.20;;;19.20;;
5279;SDS011;2663;53.588;10.010;2022-08-19T09:39:00;35.23;;;17.90;;
5279;SDS011;2663;53.588;10.010;2022-08-19T09:41:27;31.17;;;18.17;;
5279;SDS011;2663;53.588;10.010;2022-08-19T09:43:55;31.80;;;16.27;;
5279;SDS011;2663;53.588;10.010;2022-08-19T09:46:25;29.00;;;15.17;;
5279;SDS011;2663;53.588;10.010;2022-08-19T09:48:56;27.83;;;15.20;;
5279;SDS011;2663;53.588;10.010;2022-08-19T09:51:31;34.17;;;16.53;;
5279;SDS011;2663;53.588;10.010;2022-08-19T09:54:01;18.80;;;13.50;;
5279;SDS011;2663;53.588;10.010;2022-08-19T09:56:30;39.07;;;16.90;;
5279;SDS011;2663;53.588;10.010;2022-08-19T09:58:59;30.23;;;15.80;;
5279;SDS011;2663;53.588;10.010;2022-08-19T10:01:28;36.27;;;16.60;;
5279;SDS011;2663;53.588;10.010;2022-08-19T10:03:57;30.10;;;17.27;;
5279;SDS011;2663;53.588;10.010;2022-08-19T10:06:26;30.97;;;15.80;;
5279;SDS011;2663;53.588;10.010;2022-08-19T10:09:11;29.30;;;15.90;;
5279;SDS011;2663;53.588;10.010;2022-08-19T10:11:42;32.33;;;17.03;;
5279;SDS011;2663;53.588;10.010;2022-08-19T10:14:20;41.30;;;17.70;;
5279;SDS011;2663;53.588;10.010;2022-08-19T10:16:49;36.97;;;16.87;;
5279;SDS011;2663;53.588;10.010;2022-08-19T10:19:18;28.20;;;15.73;;
5279;SDS011;2663;53.588;10.010;2022-08-19T10:21:51;33.83;;;17.47;;
5279;SDS011;2663;53.588;10.010;2022-08-19T10:24:18;28.20;;;16.93;;
5279;SDS011;2663;53.588;10.010;2022-08-19T10:26:46;34.30;;;16.73;;
5279;SDS011;2663;53.588;10.010;2022-08-19T10:29:24;32.37;;;16.63;;
5279;SDS011;2663;53.588;10.010;2022-08-19T10:31:58;33.70;;;16.27;;
5279;SDS011;2663;53.588;10.010;2022-08-19T10:34:28;30.30;;;17.57;;
5279;SDS011;2663;53.588;10.010;2022-08-19T10:36:56;30.07;;;16.90;;
5279;SDS011;2663;53.588;10.010;2022-08-19T10:39:27;38.33;;;18.23;;
5279;SDS011;2663;53.588;10.010;2022-08-19T10:42:08;43.20;;;19.33;;
5279;SDS011;2663;53.588;10.010;2022-08-19T10:44:39;35.67;;;18.80;;
5279;SDS011;2663;53.588;10.010;2022-08-19T10:47:06;37.40;;;20.20;;
5279;SDS011;2663;53.588;10.010;2022-08-19T10:49:49;30.93;;;18.80;;
5279;SDS011;2663;53.588;10.010;2022-08-19T10:52:37;36.70;;;18.40;;
5279;SDS011;2663;53.588;10.010;2022-08-19T10:55:15;31.60;;;17.57;;
5279;SDS011;2663;53.588;10.010;2022-08-19T10:58:14;39.00;;;17.57;;
5279;SDS011;2663;53.588;10.010;2022-08-19T11:00:53;43.40;;;20.40;;
5279;SDS011;2663;53.588;10.010;2022-08-19T11:03:22;44.57;;;19.93;;
5279;SDS011;2663;53.588;10.010;2022-08-19T11:06:03;38.47;;;19.37;;
5279;SDS011;2663;53.588;10.010;2022-08-19T11:08:31;50.80;;;21.00;;
5279;SDS011;2663;53.588;10.010;2022-08-19T11:11:01;35.93;;;20.17;;
5279;SDS011;2663;53.588;10.010;2022-08-19T11:13:33;42.13;;;20.20;;
5279;SDS011;2663;53.588;10.010;2022-08-19T11:18:43;35.83;;;19.17;;
5279;SDS011;2663;53.588;10.010;2022-08-19T11:21:14;36.73;;;18.20;;
5279;SDS011;2663;53.588;10.010;2022-08-19T11:23:47;33.70;;;18.00;;
5279;SDS011;2663;53.588;10.010;2022-08-19T11:26:15;37.50;;;19.73;;
5279;SDS011;2663;53.588;10.010;2022-08-19T11:28:42;34.60;;;18.20;;
5279;SDS011;2663;53.588;10.010;2022-08-19T11:31:13;27.67;;;16.90;;
5279;SDS011;2663;53.588;10.010;2022-08-19T11:33:41;32.13;;;17.40;;
5279;SDS011;2663;53.588;10.010;2022-08-19T11:36:13;28.30;;;15.07;;
5279;SDS011;2663;53.588;10.010;2022-08-19T11:38:42;38.43;;;22.53;;
5279;SDS011;2663;53.588;10.010;2022-08-19T11:41:08;24.80;;;15.10;;
5279;SDS011;2663;53.588;10.010;2022-08-19T11:43:35;24.80;;;15.23;;
5279;SDS011;2663;53.588;10.010;2022-08-19T11:46:04;30.83;;;16.13;;
5279;SDS011;2663;53.588;10.010;2022-08-19T11:48:36;33.57;;;16.30;;
5279;SDS011;2663;53.588;10.010;2022-08-19T11:51:07;24.73;;;15.13;;
5279;SDS011;2663;53.588;10.010;2022-08-19T11:53:37;18.30;;;13.33;;
5279;SDS011;2663;53.588;10.010;2022-08-19T11:56:04;22.90;;;13.50;;
5279;SDS011;2663;53.588;10.010;2022-08-19T11:58:32;24.53;;;13.93;;
5279;SDS011;2663;53.588;10.010;2022-08-19T12:01:00;34.23;;;13.80;;
5279;SDS011;2663;53.588;10.010;2022-08-19T12:03:27;24.17;;;14.20;;
5279;SDS011;2663;53.588;10.010;2022-08-19T12:05:54;26.20;;;14.60;;
5279;SDS011;2663;53.588;10.010;2022-08-19T12:08:20;24.50;;;14.63;;
5279;SDS011;2663;53.588;10.010;2022-08-19T12:10:47;27.07;;;16.37;;
5279;SDS011;2663;53.588;10.010;2022-08-19T12:13:14;21.97;;;13.40;;
5279;SDS011;2663;53.588;10.010;2022-08-19T12:15:45;22.07;;;14.77;;
5279;SDS011;2663;53.588;10.010;2022-08-19T12:18:13;24.73;;;13.77;;
5279;SDS011;2663;53.588;10.010;2022-08-19T12:20:40;22.30;;;13.70;;
5279;SDS011;2663;53.588;10.010;2022-08-19T12:23:09;21.80;;;13.63;;
5279;SDS011;2663;53.588;10.010;2022-08-19T12:25:36;21.20;;;13.90;;
5279;SDS011;2663;53.588;10.010;2022-08-19T12:28:09;29.73;;;13.70;;
5279;SDS011;2663;53.588;10.010;2022-08-19T12:30:37;24.37;;;13.50;;
5279;SDS011;2663;53.588;10.010;2022-08-19T12:33:04;18.30;;;13.43;;
5279;SDS011;2663;53.588;10.010;2022-08-19T12:35:31;22.40;;;13.30;;
5279;SDS011;2663;53.588;10.010;2022-08-19T12:37:57;21.67;;;13.93;;
5279;SDS011;2663;53.588;10.010;2022-08-19T12:40:26;20.17;;;13.57;;
5279;SDS011;2663;53.588;10.010;2022-08-19T12:42:53;20.67;;;12.83;;
5279;SDS011;2663;53.588;10.010;2022-08-19T12:45:20;16.03;;;11.40;;
5279;SDS011;2663;53.588;10.010;2022-08-19T12:47:48;17.13;;;11.10;;
5279;SDS011;2663;53.588;10.010;2022-08-19T12:50:20;24.60;;;13.10;;
5279;SDS011;2663;53.588;10.010;2022-08-19T12:52:47;18.70;;;11.53;;
5279;SDS011;2663;53.588;10.010;2022-08-19T12:55:14;14.23;;;11.17;;
5279;SDS011;2663;53.588;10.010;2022-08-19T12:57:41;15.03;;;10.17;;
5279;SDS011;2663;53.588;10.010;2022-08-19T13:00:18;19.10;;;11.33;;
5279;SDS011;2663;53.588;10.010;2022-08-19T13:02:47;20.30;;;12.90;;
5279;SDS011;2663;53.588;10.010;2022-08-19T13:05:18;16.27;;;11.87;;
5279;SDS011;2663;53.588;10.010;2022-08-19T13:07:48;18.23;;;12.17;;
5279;SDS011;2663;53.588;10.010;2022-08-19T13:10:18;19.60;;;11.27;;
5279;SDS011;2663;53.588;10.010;2022-08-19T13:12:47;18.50;;;11.57;;
5279;SDS011;2663;53.588;10.010;2022-08-19T13:15:15;15.67;;;11.27;;
5279;SDS011;2663;53.588;10.010;2022-08-19T13:17:50;20.70;;;12.50;;
5279;SDS011;2663;53.588;10.010;2022-08-19T13:20:19;15.50;;;10.70;;
5279;SDS011;2663;53.588;10.010;2022-08-19T13:22:47;14.10;;;9.93;;
5279;SDS011;2663;53.588;10.010;2022-08-19T13:25:15;14.00;;;10.03;;
5279;SDS011;2663;53.588;10.010;2022-08-19T13:27:45;15.13;;;10.53;;
5279;SDS011;2663;53.588;10.010;2022-08-19T13:30:17;18.77;;;10.90;;
5279;SDS011;2663;53.588;10.010;2022-08-19T13:33:04;15.87;;;10.53;;
5279;SDS011;2663;53.588;10.010;2022-08-19T13:35:38;18.30;;;11.50;;
5279;SDS011;2663;53.588;10.010;2022-08-19T13:38:10;17.43;;;13.47;;
5279;SDS011;2663;53.588;10.010;2022-08-19T13:40:39;15.37;;;11.43;;
5279;SDS011;2663;53.588;10.010;2022-08-19T13:43:06;19.27;;;11.07;;
5279;SDS011;2663;53.588;10.010;2022-08-19T13:45:48;17.43;;;11.83;;
5279;SDS011;2663;53.588;10.010;2022-08-19T13:48:19;28.33;;;12.37;;
5279;SDS011;2663;53.588;10.010;2022-08-19T13:50:46;16.10;;;11.33;;
5279;SDS011;2663;53.588;10.010;2022-08-19T13:53:14;18.40;;;12.77;;
5279;SDS011;2663;53.588;10.010;2022-08-19T13:55:42;15.70;;;11.47;;
5279;SDS011;2663;53.588;10.010;2022-08-19T13:58:10;18.97;;;10.77;;
5279;SDS011;2663;53.588;10.010;2022-08-19T14:00:42;21.33;;;11.30;;
5279;SDS011;2663;53.588;10.010;2022-08-19T14:03:10;19.80;;;10.77;;
5279;SDS011;2663;53.588;10.010;2022-08-19T14:05:37;13.50;;;10.20;;
5279;SDS011;2663;53.588;10.010;2022-08-19T14:08:04;17.80;;;12.00;;
5279;SDS011;2663;53.588;10.010;2022-08-19T14:10:31;20.07;;;12.70;;
5279;SDS011;2663;53.588;10.010;2022-08-19T14:12:59;17.43;;;11.43;;
5279;SDS011;2663;53.588;10.010;2022-08-19T14:15:27;19.00;;;12.30;;
5279;SDS011;2663;53.588;10.010;2022-08-19T14:17:55;23.17;;;13.03;;
5279;SDS011;2663;53.588;10.010;2022-08-19T14:20:22;16.37;;;11.40;;
5279;SDS011;2663;53.588;10.010;2022-08-19T14:22:51;18.87;;;12.80;;
5279;SDS011;2663;53.588;10.010;2022-08-19T14:25:20;20.57;;;11.17;;
5279;SDS011;2663;53.588;10.010;2022-08-19T14:27:49;20.90;;;12.47;;
5279;SDS011;2663;53.588;10.010;2022-08-19T14:30:19;18.80;;;12.60;;
5279;SDS011;2663;53.588;10.010;2022-08-19T14:32:48;19.23;;;13.70;;
5279;SDS011;2663;53.588;10.010;2022-08-19T14:35:15;22.07;;;13.07;;
5279;SDS011;2663;53.588;10.010;2022-08-19T14:37:43;19.87;;;13.90;;
5279;SDS011;2663;53.588;10.010;2022-08-19T14:40:22;15.10;;;11.60;;
5279;SDS011;2663;53.588;10.010;2022-08-19T14:42:52;20.77;;;13.23;;
5279;SDS011;2663;53.588;10.010;2022-08-19T14:45:31;16.80;;;12.60;;
5279;SDS011;2663;53.588;10.010;2022-08-19T14:48:01;18.27;;;13.90;;
5279;SDS011;2663;53.588;10.010;2022-08-19T14:50:29;22.63;;;14.83;;
5279;SDS011;2663;53.588;10.010;2022-08-19T14:53:04;20.47;;;13.90;;
5279;SDS011;2663;53.588;10.010;2022-08-19T14:55:40;16.93;;;12.63;;
5279;SDS011;2663;53.588;10.010;2022-08-19T14:58:09;16.93;;;11.67;;
5279;SDS011;2663;53.588;10.010;2022-08-19T15:00:55;17.37;;;12.60;;
5279;SDS011;2663;53.588;10.010;2022-08-19T15:03:22;20.00;;;13.50;;
5279;SDS011;2663;53.588;10.010;2022-08-19T15:05:50;19.73;;;12.27;;
5279;SDS011;2663;53.588;10.010;2022-08-19T15:08:16;14.87;;;11.37;;